createdAt,value
2024-02-08T00:02:13.048Z,4.45
2024-02-08T00:04:40.607Z,4.10
2024-02-08T00:07:09.489Z,3.75
2024-02-08T00:09:36.976Z,3.55
2024-02-08T00:12:04.934Z,4.40
2024-02-08T00:14:32.438Z,4.18
2024-02-08T00:16:59.945Z,3.65
2024-02-08T00:19:27.403Z,3.83
2024-02-08T00:21:54.887Z,3.50
2024-02-08T00:24:23.909Z,3.85
2024-02-08T00:26:51.344Z,4.07
2024-02-08T00:29:18.862Z,4.35
2024-02-08T00:31:47.217Z,4.22
2024-02-08T00:34:14.744Z,4.35
2024-02-08T00:36:42.218Z,4.00
2024-02-08T00:39:09.680Z,4.07
2024-02-08T00:41:38.541Z,4.30
2024-02-08T00:44:06.135Z,4.10
2024-02-08T00:46:33.628Z,4.30
2024-02-08T00:49:01.273Z,4.03
2024-02-08T00:51:28.789Z,4.10
2024-02-08T00:53:57.520Z,3.97
2024-02-08T00:56:24.996Z,3.10
2024-02-08T00:58:53.875Z,2.75
2024-02-08T01:01:21.477Z,3.83
2024-02-08T01:03:49.042Z,3.47
2024-02-08T01:06:16.574Z,3.70
2024-02-08T01:08:44.102Z,4.07
2024-02-08T01:11:11.698Z,4.40
2024-02-08T01:13:39.793Z,4.45
2024-02-08T01:16:12.621Z,4.53
2024-02-08T01:18:42.924Z,4.45
2024-02-08T01:21:11.391Z,3.67
2024-02-08T01:23:39.935Z,4.68
2024-02-08T01:26:08.264Z,4.20
2024-02-08T01:28:36.319Z,3.65
2024-02-08T01:31:04.504Z,3.50
2024-02-08T01:33:37.529Z,4.22
2024-02-08T01:36:05.772Z,4.32
2024-02-08T01:38:33.223Z,4.25
2024-02-08T01:41:01.561Z,4.65
2024-02-08T01:43:33.049Z,4.18
2024-02-08T01:46:00.545Z,3.83
2024-02-08T01:48:28.684Z,4.57
2024-02-08T01:51:01.660Z,4.53
2024-02-08T01:53:30.305Z,4.60
2024-02-08T01:56:01.998Z,4.75
2024-02-08T01:58:32.448Z,4.38
2024-02-08T02:01:01.096Z,4.68
2024-02-08T02:03:28.621Z,4.03
2024-02-08T02:05:56.167Z,4.40
2024-02-08T02:08:27.588Z,5.88
2024-02-08T02:11:00.297Z,5.00
2024-02-08T02:13:28.427Z,4.57
2024-02-08T02:16:05.102Z,3.75
2024-02-08T02:18:33.321Z,3.92
2024-02-08T02:21:00.778Z,4.65
2024-02-08T02:23:29.553Z,4.72
2024-02-08T02:25:57.138Z,4.10
2024-02-08T02:28:24.688Z,4.30
2024-02-08T02:30:52.697Z,3.95
2024-02-08T02:33:21.406Z,4.00
2024-02-08T02:35:50.202Z,3.80
2024-02-08T02:38:19.042Z,4.75
2024-02-08T02:40:48.436Z,3.65
2024-02-08T02:43:16.241Z,3.35
2024-02-08T02:45:43.847Z,3.78
2024-02-08T02:48:11.658Z,5.10
2024-02-08T02:50:42.006Z,4.90
2024-02-08T02:53:09.843Z,4.43
2024-02-08T02:55:38.437Z,4.18
2024-02-08T02:58:07.399Z,4.78
2024-02-08T03:00:38.862Z,4.20
2024-02-08T03:03:09.533Z,3.53
2024-02-08T03:05:37.852Z,2.78
2024-02-08T03:08:07.503Z,3.60
2024-02-08T03:10:39.025Z,3.85
2024-02-08T03:13:09.010Z,4.15
2024-02-08T03:15:38.158Z,4.65
2024-02-08T03:18:08.580Z,4.97
2024-02-08T03:20:37.541Z,5.30
2024-02-08T03:23:05.759Z,4.53
2024-02-08T03:25:35.107Z,4.80
2024-02-08T03:28:05.610Z,4.97
2024-02-08T03:30:36.167Z,4.72
2024-02-08T03:33:13.275Z,4.57
2024-02-08T03:35:40.904Z,4.43
2024-02-08T03:38:09.987Z,4.20
2024-02-08T03:40:38.944Z,4.50
2024-02-08T03:43:06.454Z,4.55
2024-02-08T03:45:40.867Z,4.57
2024-02-08T03:48:12.314Z,3.65
2024-02-08T03:50:40.635Z,4.82
2024-02-08T03:53:13.719Z,4.72
2024-02-08T03:55:52.894Z,5.15
2024-02-08T03:58:24.562Z,5.68
2024-02-08T04:00:55.323Z,5.95
2024-02-08T04:03:45.191Z,5.57
2024-02-08T04:06:28.332Z,5.53
2024-02-08T04:09:10.790Z,5.80
2024-02-08T04:11:52.603Z,5.13
2024-02-08T04:14:37.414Z,5.53
2024-02-08T04:17:23.728Z,5.97
2024-02-08T04:20:08.673Z,6.43
2024-02-08T04:22:54.049Z,6.18
2024-02-08T04:25:38.902Z,5.78
2024-02-08T04:28:24.327Z,6.97
2024-02-08T04:31:09.670Z,6.90
2024-02-08T04:33:56.619Z,7.18
2024-02-08T04:36:41.647Z,8.05
2024-02-08T04:39:31.950Z,7.70
2024-02-08T04:42:16.830Z,8.80
2024-02-08T04:45:01.993Z,8.05
2024-02-08T04:47:47.282Z,9.77
2024-02-08T04:50:33.660Z,9.57
2024-02-08T04:53:18.912Z,10.50
2024-02-08T04:55:47.151Z,11.30
2024-02-08T04:58:36.567Z,11.65
2024-02-08T05:01:03.157Z,10.32
2024-02-08T05:03:31.975Z,11.35
2024-02-08T05:06:04.920Z,11.18
2024-02-08T05:08:33.431Z,11.48
2024-02-08T05:11:00.879Z,12.65
2024-02-08T05:13:28.787Z,12.02
2024-02-08T05:15:56.350Z,10.38
2024-02-08T05:18:25.625Z,11.40
2024-02-08T05:20:53.117Z,11.70
2024-02-08T05:23:21.948Z,12.07
2024-02-08T05:25:49.489Z,12.15
2024-02-08T05:28:17.008Z,12.45
2024-02-08T05:30:44.563Z,12.35
2024-02-08T05:33:15.753Z,12.45
2024-02-08T05:35:45.413Z,13.95
2024-02-08T05:38:13.024Z,12.43
2024-02-08T05:40:44.776Z,13.57
2024-02-08T05:43:12.485Z,13.70
2024-02-08T05:45:39.941Z,12.95
2024-02-08T05:48:08.726Z,14.50
2024-02-08T05:50:36.333Z,12.60
2024-02-08T05:53:07.984Z,14.50
2024-02-08T05:55:36.474Z,14.07
2024-02-08T05:58:08.142Z,15.55
2024-02-08T06:00:46.636Z,15.55
2024-02-08T06:03:22.175Z,14.30
2024-02-08T06:05:50.773Z,17.40
2024-02-08T06:08:26.907Z,16.05
2024-02-08T06:10:54.682Z,15.77
2024-02-08T06:13:25.187Z,17.60
2024-02-08T06:16:01.776Z,16.40
2024-02-08T06:18:32.248Z,18.35
2024-02-08T06:21:13.894Z,17.80
2024-02-08T06:23:44.734Z,18.25
2024-02-08T06:26:29.219Z,12.50
2024-02-08T06:29:06.625Z,16.33
2024-02-08T06:34:29.233Z,16.90
2024-02-08T06:37:22.077Z,18.33
2024-02-08T06:39:57.720Z,18.85
2024-02-08T06:42:46.115Z,17.75
2024-02-08T06:45:26.186Z,19.73
2024-02-08T06:48:15.772Z,20.70
2024-02-08T06:51:01.632Z,20.13
2024-02-08T06:53:47.085Z,21.35
2024-02-08T06:56:32.257Z,21.00
2024-02-08T06:59:18.360Z,23.45
2024-02-08T07:02:04.954Z,22.90
2024-02-08T07:04:50.210Z,23.80
2024-02-08T07:07:35.642Z,23.77
2024-02-08T07:10:20.912Z,21.45
2024-02-08T07:13:08.528Z,21.95
2024-02-08T07:15:53.689Z,21.48
2024-02-08T07:18:49.039Z,20.17
2024-02-08T07:21:37.543Z,23.88
2024-02-08T07:24:23.187Z,23.10
2024-02-08T07:27:08.198Z,24.00
2024-02-08T07:29:53.482Z,25.23
2024-02-08T07:32:38.676Z,25.13
2024-02-08T07:35:25.378Z,24.42
2024-02-08T07:37:54.389Z,24.63
2024-02-08T07:40:25.665Z,23.02
2024-02-08T07:42:54.175Z,23.05
2024-02-08T07:45:28.155Z,23.25
2024-02-08T07:48:09.868Z,21.40
2024-02-08T07:50:46.081Z,22.13
2024-02-08T07:53:21.267Z,20.48
2024-02-08T07:56:09.418Z,21.50
2024-02-08T07:58:43.400Z,21.67
2024-02-08T08:01:14.758Z,24.60
2024-02-08T08:03:42.491Z,23.83
2024-02-08T08:06:11.373Z,22.50
2024-02-08T08:08:38.927Z,24.88
2024-02-08T08:11:08.151Z,23.90
2024-02-08T08:14:08.024Z,23.63
2024-02-08T08:16:37.431Z,22.77
2024-02-08T08:19:10.426Z,24.05
2024-02-08T08:21:59.940Z,21.45
2024-02-08T08:24:28.233Z,21.92
2024-02-08T08:27:07.980Z,20.17
2024-02-08T08:29:44.929Z,20.10
2024-02-08T08:32:30.687Z,21.88
2024-02-08T08:35:16.480Z,21.25
2024-02-08T08:37:46.486Z,21.38
2024-02-08T08:40:25.381Z,23.33
2024-02-08T08:42:56.022Z,23.15
2024-02-08T08:45:23.706Z,16.23
2024-02-08T08:47:52.936Z,22.73
2024-02-08T08:50:20.974Z,22.63
2024-02-08T08:52:50.573Z,22.02
2024-02-08T08:55:21.892Z,21.40
2024-02-08T08:57:55.665Z,21.52
2024-02-08T09:00:33.442Z,20.60
2024-02-08T09:03:01.525Z,23.42
2024-02-08T09:05:38.019Z,22.02
2024-02-08T09:08:10.548Z,22.90
2024-02-08T09:10:41.950Z,23.42
2024-02-08T09:13:10.116Z,24.88
2024-02-08T09:15:49.300Z,27.70
2024-02-08T09:18:17.119Z,26.65
2024-02-08T09:20:44.949Z,25.70
2024-02-08T09:23:18.857Z,27.15
2024-02-08T09:25:47.100Z,24.58
2024-02-08T09:28:30.986Z,25.33
2024-02-08T09:30:59.649Z,24.15
2024-02-08T09:33:37.099Z,23.45
2024-02-08T09:36:05.416Z,22.88
2024-02-08T09:38:45.037Z,25.10
2024-02-08T09:41:16.571Z,22.73
2024-02-08T09:43:45.959Z,22.90
2024-02-08T09:46:29.415Z,23.55
2024-02-08T09:49:00.565Z,24.42
2024-02-08T09:51:33.648Z,16.95
2024-02-08T09:54:17.031Z,24.65
2024-02-08T09:56:51.418Z,22.65
2024-02-08T09:59:34.860Z,23.83
2024-02-08T10:02:05.618Z,22.00
2024-02-08T10:04:34.231Z,21.80
2024-02-08T10:07:07.085Z,23.42
2024-02-08T10:09:42.568Z,23.35
2024-02-08T10:12:12.952Z,17.77
2024-02-08T10:14:43.112Z,25.17
2024-02-08T10:17:16.125Z,24.15
2024-02-08T10:20:14.717Z,25.20
2024-02-08T10:22:54.666Z,24.95
2024-02-08T10:25:45.655Z,25.42
2024-02-08T10:28:23.253Z,26.48
2024-02-08T10:30:58.395Z,25.75
2024-02-08T10:33:26.610Z,25.58
2024-02-08T10:36:00.993Z,25.15
2024-02-08T10:38:32.225Z,26.23
2024-02-08T10:41:03.700Z,24.92
2024-02-08T10:43:38.656Z,25.77
2024-02-08T10:46:17.773Z,27.38
2024-02-08T10:48:50.502Z,24.17
2024-02-08T10:51:27.298Z,26.30
2024-02-08T10:54:06.356Z,26.17
2024-02-08T10:56:46.337Z,25.95
2024-02-08T10:59:15.326Z,26.58
2024-02-08T11:01:57.290Z,25.85
2024-02-08T11:07:16.367Z,23.95
2024-02-08T11:09:45.936Z,23.17
2024-02-08T11:12:19.343Z,25.77
2024-02-08T11:14:54.503Z,24.08
2024-02-08T11:17:25.186Z,23.63
2024-02-08T11:19:58.738Z,22.60
2024-02-08T11:22:37.203Z,24.20
2024-02-08T11:25:19.953Z,23.95
2024-02-08T11:27:52.715Z,24.20
2024-02-08T11:30:34.241Z,23.85
2024-02-08T11:33:04.230Z,23.17
2024-02-08T11:35:32.893Z,24.83
2024-02-08T11:38:16.963Z,24.27
2024-02-08T11:40:46.697Z,22.25
2024-02-08T11:43:25.220Z,23.58
2024-02-08T11:45:54.296Z,23.58
2024-02-08T11:48:26.152Z,23.88
2024-02-08T11:50:56.682Z,22.67
2024-02-08T11:53:34.304Z,22.50
2024-02-08T11:56:05.006Z,21.05
2024-02-08T11:58:36.788Z,20.70
2024-02-08T12:01:05.603Z,20.63
2024-02-08T12:03:33.449Z,20.67
2024-02-08T12:06:02.407Z,21.30
2024-02-08T12:08:37.299Z,22.55
2024-02-08T12:11:10.538Z,22.38
2024-02-08T12:13:41.191Z,21.73
2024-02-08T12:16:08.809Z,21.15
2024-02-08T12:18:36.940Z,19.52
2024-02-08T12:21:11.990Z,18.25
2024-02-08T12:23:42.546Z,19.13
2024-02-08T12:26:10.618Z,19.33
2024-02-08T12:28:42.406Z,17.73
2024-02-08T12:33:52.570Z,17.58
2024-02-08T12:36:23.873Z,18.02
2024-02-08T12:38:52.489Z,17.40
2024-02-08T12:41:22.681Z,18.00
2024-02-08T12:43:58.622Z,17.58
2024-02-08T12:46:27.348Z,17.73
2024-02-08T12:48:56.693Z,18.10
2024-02-08T12:51:24.679Z,17.65
2024-02-08T12:53:58.209Z,17.58
2024-02-08T12:56:26.357Z,17.60
2024-02-08T12:59:02.226Z,17.45
2024-02-08T13:01:38.230Z,15.63
2024-02-08T13:04:06.398Z,14.05
2024-02-08T13:06:34.181Z,17.48
2024-02-08T13:09:18.267Z,16.27
2024-02-08T13:11:46.550Z,16.13
2024-02-08T13:14:19.805Z,15.32
2024-02-08T13:16:48.654Z,15.73
2024-02-08T13:19:26.935Z,15.77
2024-02-08T13:21:57.176Z,14.20
2024-02-08T13:24:26.949Z,13.85
2024-02-08T13:26:54.427Z,12.77
2024-02-08T13:29:27.397Z,13.10
2024-02-08T13:31:54.850Z,17.08
2024-02-08T13:34:28.574Z,17.75
2024-02-08T13:37:00.200Z,15.68
2024-02-08T13:39:27.865Z,14.07
2024-02-08T13:41:55.300Z,14.85
2024-02-08T13:44:25.587Z,16.20
2024-02-08T13:46:53.236Z,15.60
2024-02-08T13:49:22.776Z,18.20
2024-02-08T13:51:52.059Z,17.85
2024-02-08T13:54:19.793Z,16.55
2024-02-08T13:56:47.373Z,15.15
2024-02-08T13:59:15.984Z,17.98
2024-02-08T14:01:45.829Z,16.67
2024-02-08T14:04:22.127Z,16.45
2024-02-08T14:06:56.636Z,15.02
2024-02-08T14:09:26.214Z,17.38
2024-02-08T14:11:57.627Z,16.63
2024-02-08T14:14:31.389Z,16.33
2024-02-08T14:17:00.311Z,17.33
2024-02-08T14:19:35.065Z,15.73
2024-02-08T14:22:07.354Z,17.52
2024-02-08T14:24:40.367Z,17.90
2024-02-08T14:27:08.042Z,17.48
2024-02-08T14:29:37.862Z,17.55
2024-02-08T14:32:16.793Z,16.33
2024-02-08T14:34:48.818Z,15.70
2024-02-08T14:37:22.743Z,14.13
2024-02-08T14:39:50.374Z,15.55
2024-02-08T14:42:26.077Z,15.02
2024-02-08T14:44:55.314Z,14.80
2024-02-08T14:47:26.591Z,13.43
2024-02-08T14:50:00.214Z,16.17
2024-02-08T14:52:36.355Z,16.15
2024-02-08T14:55:11.742Z,16.08
2024-02-08T14:57:46.255Z,13.00
2024-02-08T15:00:33.214Z,13.88
2024-02-08T15:03:09.287Z,12.82
2024-02-08T15:05:49.866Z,12.20
2024-02-08T15:08:47.206Z,11.88
2024-02-08T15:11:39.712Z,10.43
2024-02-08T15:14:08.219Z,12.20
2024-02-08T15:16:38.284Z,11.93
2024-02-08T15:19:07.386Z,13.50
2024-02-08T15:21:36.958Z,12.27
2024-02-08T15:24:23.433Z,11.25
2024-02-08T15:26:53.234Z,13.85
2024-02-08T15:29:37.367Z,13.68
2024-02-08T15:32:11.957Z,16.42
2024-02-08T15:35:00.986Z,16.73
2024-02-08T15:37:42.741Z,17.15
2024-02-08T15:40:15.796Z,14.30
2024-02-08T15:42:44.467Z,24.05
2024-02-08T15:45:12.551Z,21.45
2024-02-08T15:48:01.705Z,23.45
2024-02-08T15:50:43.763Z,19.23
2024-02-08T15:53:18.023Z,21.05
2024-02-08T15:55:50.505Z,20.90
2024-02-08T15:58:26.865Z,21.73
2024-02-08T16:01:11.591Z,24.45
2024-02-08T16:03:47.326Z,24.70
2024-02-08T16:06:33.465Z,21.02
2024-02-08T16:09:03.095Z,22.67
2024-02-08T16:11:31.330Z,19.55
2024-02-08T16:14:04.527Z,22.50
2024-02-08T16:16:32.782Z,24.02
2024-02-08T16:19:24.342Z,30.20
2024-02-08T16:21:57.414Z,22.63
2024-02-08T16:24:25.013Z,21.42
2024-02-08T16:26:58.339Z,21.85
2024-02-08T16:29:35.868Z,19.58
2024-02-08T16:32:08.276Z,20.30
2024-02-08T16:34:51.377Z,19.70
2024-02-08T16:37:42.849Z,19.50
2024-02-08T16:40:16.281Z,13.97
2024-02-08T16:42:48.826Z,18.02
2024-02-08T16:45:24.400Z,16.58
2024-02-08T16:47:57.509Z,17.27
2024-02-08T16:50:46.386Z,17.67
2024-02-08T16:53:20.278Z,15.18
2024-02-08T16:55:49.644Z,15.32
2024-02-08T16:58:29.371Z,14.20
2024-02-08T17:01:04.277Z,14.55
2024-02-08T17:03:49.563Z,13.48
2024-02-08T17:06:19.056Z,14.02
2024-02-08T17:09:16.843Z,12.50
2024-02-08T17:11:46.356Z,11.13
2024-02-08T17:14:34.252Z,11.73
2024-02-08T17:17:07.597Z,11.75
2024-02-08T17:19:58.474Z,12.10
2024-02-08T17:22:42.007Z,11.68
2024-02-08T17:25:26.676Z,11.45
2024-02-08T17:28:15.794Z,11.75
2024-02-08T17:31:01.582Z,13.13
2024-02-08T17:33:31.846Z,13.65
2024-02-08T17:36:00.637Z,12.98
2024-02-08T17:38:36.403Z,12.80
2024-02-08T17:41:09.920Z,12.55
2024-02-08T17:43:39.984Z,11.98
2024-02-08T17:46:08.682Z,12.27
2024-02-08T17:48:38.510Z,11.77
2024-02-08T17:51:12.274Z,11.98
2024-02-08T17:53:45.709Z,11.88
2024-02-08T17:56:18.507Z,11.13
2024-02-08T17:58:47.024Z,15.68
2024-02-08T18:01:17.945Z,13.55
2024-02-08T18:03:47.740Z,8.70
2024-02-08T18:06:18.264Z,20.17
2024-02-08T18:08:47.812Z,20.75
2024-02-08T18:11:17.327Z,25.52
2024-02-08T18:13:45.033Z,13.75
2024-02-08T18:16:12.558Z,13.57
2024-02-08T18:18:42.124Z,13.20
2024-02-08T18:21:14.978Z,9.57
2024-02-08T18:23:46.806Z,8.68
2024-02-08T18:26:26.981Z,8.55
2024-02-08T18:28:55.566Z,5.17
2024-02-08T18:31:24.534Z,9.65
2024-02-08T18:33:58.280Z,4.07
2024-02-08T18:36:26.106Z,10.65
2024-02-08T18:38:53.921Z,7.53
2024-02-08T18:41:22.848Z,5.30
2024-02-08T18:43:50.806Z,5.68
2024-02-08T18:46:19.134Z,6.75
2024-02-08T18:48:54.201Z,7.43
2024-02-08T18:51:24.104Z,7.70
2024-02-08T18:53:53.815Z,8.05
2024-02-08T18:56:22.859Z,8.40
2024-02-08T18:58:53.254Z,8.05
2024-02-08T19:01:22.096Z,7.47
2024-02-08T19:03:50.264Z,8.32
2024-02-08T19:06:19.694Z,7.85
2024-02-08T19:08:47.580Z,9.63
2024-02-08T19:11:15.018Z,9.40
2024-02-08T19:13:46.070Z,12.38
2024-02-08T19:16:15.701Z,9.30
2024-02-08T19:18:53.394Z,12.65
2024-02-08T19:21:27.012Z,13.85
2024-02-08T19:24:00.149Z,13.30
2024-02-08T19:26:28.630Z,14.00
2024-02-08T19:28:58.684Z,14.60
2024-02-08T19:31:28.241Z,14.93
2024-02-08T19:33:58.824Z,14.15
2024-02-08T19:36:26.466Z,13.88
2024-02-08T19:38:54.795Z,14.75
2024-02-08T19:41:23.751Z,14.77
2024-02-08T19:43:51.630Z,14.55
2024-02-08T19:46:20.571Z,12.65
2024-02-08T19:48:53.574Z,13.35
2024-02-08T19:51:26.099Z,12.55
2024-02-08T19:53:56.932Z,11.70
2024-02-08T19:56:24.772Z,12.57
2024-02-08T19:58:54.515Z,12.20
2024-02-08T20:01:26.733Z,12.70
2024-02-08T20:03:54.492Z,13.13
2024-02-08T20:06:23.391Z,12.10
2024-02-08T20:08:55.535Z,12.43
2024-02-08T20:11:24.919Z,11.73
2024-02-08T20:14:00.156Z,11.57
2024-02-08T20:16:32.322Z,11.57
2024-02-08T20:19:02.428Z,14.02
2024-02-08T20:21:32.907Z,12.50
2024-02-08T20:24:01.366Z,12.38
2024-02-08T20:26:30.056Z,12.55
2024-02-08T20:28:57.555Z,11.35
2024-02-08T20:31:26.023Z,11.65
2024-02-08T20:33:57.005Z,12.52
2024-02-08T20:36:26.207Z,12.13
2024-02-08T20:38:55.441Z,13.15
2024-02-08T20:41:24.852Z,13.68
2024-02-08T20:43:56.526Z,11.82
2024-02-08T20:46:26.105Z,11.20
2024-02-08T20:48:55.850Z,11.68
2024-02-08T20:51:23.546Z,11.05
2024-02-08T20:53:51.001Z,12.70
2024-02-08T20:56:27.411Z,10.93
2024-02-08T20:58:56.928Z,11.13
2024-02-08T21:01:25.571Z,10.90
2024-02-08T21:03:53.699Z,11.93
2024-02-08T21:06:23.235Z,11.30
2024-02-08T21:08:51.368Z,12.05
2024-02-08T21:11:20.055Z,12.07
2024-02-08T21:13:50.280Z,12.30
2024-02-08T21:16:20.692Z,11.73
2024-02-08T21:18:48.338Z,10.98
2024-02-08T21:21:16.033Z,12.30
2024-02-08T21:23:46.474Z,10.52
2024-02-08T21:26:16.396Z,10.15
2024-02-08T21:28:48.362Z,10.65
2024-02-08T21:31:19.341Z,11.13
2024-02-08T21:33:49.004Z,9.40
2024-02-08T21:36:16.878Z,8.75
2024-02-08T21:38:48.119Z,9.23
2024-02-08T21:41:15.998Z,6.63
2024-02-08T21:43:43.614Z,8.63
2024-02-08T21:46:12.920Z,9.48
2024-02-08T21:48:42.288Z,8.63
2024-02-08T21:51:10.139Z,8.38
2024-02-08T21:53:39.268Z,8.95
2024-02-08T21:56:13.549Z,8.25
2024-02-08T21:58:41.047Z,7.63
2024-02-08T22:03:54.143Z,7.00
2024-02-08T22:06:22.500Z,6.85
2024-02-08T22:08:50.321Z,7.35
2024-02-08T22:11:19.208Z,7.22
2024-02-08T22:13:47.015Z,7.40
2024-02-08T22:16:16.881Z,7.63
2024-02-08T22:18:47.478Z,7.25
2024-02-08T22:21:18.268Z,4.70
2024-02-08T22:23:46.269Z,6.80
2024-02-08T22:26:14.207Z,6.75
2024-02-08T22:28:43.655Z,6.10
2024-02-08T22:31:12.483Z,6.25
2024-02-08T22:33:40.414Z,5.35
2024-02-08T22:36:08.576Z,6.50
2024-02-08T22:38:36.228Z,5.78
2024-02-08T22:41:03.833Z,5.82
2024-02-08T22:43:32.786Z,6.28
2024-02-08T22:46:01.764Z,5.50
2024-02-08T22:48:29.523Z,5.22
2024-02-08T22:50:57.216Z,5.32
2024-02-08T22:53:25.058Z,5.50
2024-02-08T22:55:52.630Z,5.45
2024-02-08T22:58:22.665Z,5.43
2024-02-08T23:01:01.882Z,5.75
2024-02-08T23:03:32.266Z,5.45
2024-02-08T23:06:06.870Z,5.43
2024-02-08T23:08:36.721Z,5.78
2024-02-08T23:11:04.430Z,5.43
2024-02-08T23:13:34.719Z,5.57
2024-02-08T23:16:09.400Z,5.28
2024-02-08T23:18:38.680Z,6.40
2024-02-08T23:21:07.181Z,5.93
2024-02-08T23:23:38.501Z,6.05
2024-02-08T23:26:06.135Z,6.20
2024-02-08T23:28:34.050Z,6.95
2024-02-08T23:31:09.843Z,6.50
2024-02-08T23:33:38.888Z,6.25
2024-02-08T23:36:08.247Z,6.35
2024-02-08T23:38:35.999Z,6.35
2024-02-08T23:41:05.667Z,6.65
2024-02-08T23:43:34.507Z,6.38
2024-02-08T23:46:02.928Z,6.78
2024-02-08T23:48:31.330Z,7.32
2024-02-08T23:51:00.384Z,6.47
2024-02-08T23:53:28.567Z,6.60
2024-02-08T23:55:56.896Z,6.20
2024-02-08T23:58:25.700Z,7.43
